sensor_id;sensor_type;location;lat;lon;timestamp;temperature;humidity
57434;DHT22;43277;52.672;6.984;2023-09-30T00:01:13;12.10;99.90
57434;DHT22;43277;52.672;6.984;2023-09-30T00:03:40;12.20;99.90
57434;DHT22;43277;52.672;6.984;2023-09-30T00:06:06;12.10;99.90
57434;DHT22;43277;52.672;6.984;2023-09-30T00:08:32;12.20;99.90
57434;DHT22;43277;52.672;6.984;2023-09-30T00:10:57;12.20;99.90
57434;DHT22;43277;52.672;6.984;2023-09-30T00:13:23;12.20;99.90
57434;DHT22;43277;52.672;6.984;2023-09-30T00:15:49;12.20;99.90
57434;DHT22;43277;52.672;6.984;2023-09-30T00:18:14;12.20;99.90
57434;DHT22;43277;52.672;6.984;2023-09-30T00:20:40;12.20;99.90
57434;DHT22;43277;52.672;6.984;2023-09-30T00:23:06;12.20;99.90
57434;DHT22;43277;52.672;6.984;2023-09-30T00:25:32;12.10;99.90
57434;DHT22;43277;52.672;6.984;2023-09-30T00:27:58;12.10;99.90
57434;DHT22;43277;52.672;6.984;2023-09-30T00:30:24;12.00;99.90
57434;DHT22;43277;52.672;6.984;2023-09-30T00:32:49;12.10;99.90
57434;DHT22;43277;52.672;6.984;2023-09-30T00:35:15;12.10;99.90
57434;DHT22;43277;52.672;6.984;2023-09-30T00:37:42;12.00;99.90
57434;DHT22;43277;52.672;6.984;2023-09-30T00:40:08;12.10;99.90
57434;DHT22;43277;52.672;6.984;2023-09-30T00:42:42;12.10;99.90
57434;DHT22;43277;52.672;6.984;2023-09-30T00:45:08;12.00;99.90
57434;DHT22;43277;52.672;6.984;2023-09-30T00:47:37;12.00;99.90
57434;DHT22;43277;52.672;6.984;2023-09-30T00:50:06;11.90;99.90
57434;DHT22;43277;52.672;6.984;2023-09-30T00:52:35;11.90;99.90
57434;DHT22;43277;52.672;6.984;2023-09-30T00:55:01;11.90;99.90
57434;DHT22;43277;52.672;6.984;2023-09-30T00:57:29;11.90;99.90
57434;DHT22;43277;52.672;6.984;2023-09-30T00:59:56;11.90;99.90
57434;DHT22;43277;52.672;6.984;2023-09-30T01:02:23;11.90;99.90
57434;DHT22;43277;52.672;6.984;2023-09-30T01:04:49;12.00;99.90
57434;DHT22;43277;52.672;6.984;2023-09-30T01:07:15;11.90;99.90
57434;DHT22;43277;52.672;6.984;2023-09-30T01:09:41;12.00;99.90
57434;DHT22;43277;52.672;6.984;2023-09-30T01:12:06;12.00;99.90
57434;DHT22;43277;52.672;6.984;2023-09-30T01:14:34;12.00;99.90
57434;DHT22;43277;52.672;6.984;2023-09-30T01:17:01;12.10;99.90
57434;DHT22;43277;52.672;6.984;2023-09-30T01:19:27;12.10;99.90
57434;DHT22;43277;52.672;6.984;2023-09-30T01:21:56;12.10;99.90
57434;DHT22;43277;52.672;6.984;2023-09-30T01:24:31;12.10;99.90
57434;DHT22;43277;52.672;6.984;2023-09-30T01:26:57;12.10;99.90
57434;DHT22;43277;52.672;6.984;2023-09-30T01:29:22;12.10;99.90
57434;DHT22;43277;52.672;6.984;2023-09-30T01:31:51;12.10;99.90
57434;DHT22;43277;52.672;6.984;2023-09-30T01:34:17;12.20;99.90
57434;DHT22;43277;52.672;6.984;2023-09-30T01:36:43;12.10;99.90
57434;DHT22;43277;52.672;6.984;2023-09-30T01:39:13;12.10;99.90
57434;DHT22;43277;52.672;6.984;2023-09-30T01:41:40;12.20;99.90
57434;DHT22;43277;52.672;6.984;2023-09-30T01:44:06;12.10;99.90
57434;DHT22;43277;52.672;6.984;2023-09-30T01:46:32;12.20;99.90
57434;DHT22;43277;52.672;6.984;2023-09-30T01:48:57;12.20;99.90
57434;DHT22;43277;52.672;6.984;2023-09-30T01:51:23;12.10;99.90
57434;DHT22;43277;52.672;6.984;2023-09-30T01:53:49;12.10;99.90
57434;DHT22;43277;52.672;6.984;2023-09-30T01:56:15;12.10;99.90
57434;DHT22;43277;52.672;6.984;2023-09-30T01:58:41;12.00;99.90
57434;DHT22;43277;52.672;6.984;2023-09-30T02:01:06;12.00;99.90
57434;DHT22;43277;52.672;6.984;2023-09-30T02:03:32;12.10;99.90
57434;DHT22;43277;52.672;6.984;2023-09-30T02:05:58;12.00;99.90
57434;DHT22;43277;52.672;6.984;2023-09-30T02:08:24;12.00;99.90
57434;DHT22;43277;52.672;6.984;2023-09-30T02:10:50;12.00;99.90
57434;DHT22;43277;52.672;6.984;2023-09-30T02:13:19;12.00;99.90
57434;DHT22;43277;52.672;6.984;2023-09-30T02:15:45;11.90;99.90
57434;DHT22;43277;52.672;6.984;2023-09-30T02:18:11;11.90;99.90
57434;DHT22;43277;52.672;6.984;2023-09-30T02:20:36;11.90;99.90
57434;DHT22;43277;52.672;6.984;2023-09-30T02:23:09;11.90;99.90
57434;DHT22;43277;52.672;6.984;2023-09-30T02:25:39;11.80;99.90
57434;DHT22;43277;52.672;6.984;2023-09-30T02:28:06;11.90;99.90
57434;DHT22;43277;52.672;6.984;2023-09-30T02:30:32;11.90;99.90
57434;DHT22;43277;52.672;6.984;2023-09-30T02:32:58;11.90;99.90
57434;DHT22;43277;52.672;6.984;2023-09-30T02:35:23;11.90;99.90
57434;DHT22;43277;52.672;6.984;2023-09-30T02:37:50;11.80;99.90
57434;DHT22;43277;52.672;6.984;2023-09-30T02:40:17;11.80;99.90
57434;DHT22;43277;52.672;6.984;2023-09-30T02:42:43;11.80;99.90
57434;DHT22;43277;52.672;6.984;2023-09-30T02:45:10;11.80;99.90
57434;DHT22;43277;52.672;6.984;2023-09-30T02:47:36;11.90;99.90
57434;DHT22;43277;52.672;6.984;2023-09-30T02:50:04;11.90;99.90
57434;DHT22;43277;52.672;6.984;2023-09-30T02:52:30;11.90;99.90
57434;DHT22;43277;52.672;6.984;2023-09-30T02:54:56;11.90;99.90
57434;DHT22;43277;52.672;6.984;2023-09-30T02:57:23;11.80;99.90
57434;DHT22;43277;52.672;6.984;2023-09-30T02:59:49;11.90;99.90
57434;DHT22;43277;52.672;6.984;2023-09-30T03:02:14;12.00;99.90
57434;DHT22;43277;52.672;6.984;2023-09-30T03:04:41;11.90;99.90
57434;DHT22;43277;52.672;6.984;2023-09-30T03:07:07;11.90;99.90
57434;DHT22;43277;52.672;6.984;2023-09-30T03:09:34;11.90;99.90
57434;DHT22;43277;52.672;6.984;2023-09-30T03:12:00;11.90;99.90
57434;DHT22;43277;52.672;6.984;2023-09-30T03:14:25;11.90;99.90
57434;DHT22;43277;52.672;6.984;2023-09-30T03:16:51;12.00;99.90
57434;DHT22;43277;52.672;6.984;2023-09-30T03:19:17;12.00;99.90
57434;DHT22;43277;52.672;6.984;2023-09-30T03:21:43;12.00;99.90
57434;DHT22;43277;52.672;6.984;2023-09-30T03:24:09;11.90;99.90
57434;DHT22;43277;52.672;6.984;2023-09-30T03:26:35;12.00;99.90
57434;DHT22;43277;52.672;6.984;2023-09-30T03:29:01;12.00;99.90
57434;DHT22;43277;52.672;6.984;2023-09-30T03:31:29;12.00;99.90
57434;DHT22;43277;52.672;6.984;2023-09-30T03:33:54;11.90;99.90
57434;DHT22;43277;52.672;6.984;2023-09-30T03:36:23;11.90;99.90
57434;DHT22;43277;52.672;6.984;2023-09-30T03:38:52;12.00;99.90
57434;DHT22;43277;52.672;6.984;2023-09-30T03:41:24;12.00;99.90
57434;DHT22;43277;52.672;6.984;2023-09-30T03:43:50;12.00;99.90
57434;DHT22;43277;52.672;6.984;2023-09-30T03:46:16;12.00;99.90
57434;DHT22;43277;52.672;6.984;2023-09-30T03:48:42;12.00;99.90
57434;DHT22;43277;52.672;6.984;2023-09-30T03:51:12;12.00;99.90
57434;DHT22;43277;52.672;6.984;2023-09-30T03:53:40;12.10;99.90
57434;DHT22;43277;52.672;6.984;2023-09-30T03:56:06;12.10;99.90
57434;DHT22;43277;52.672;6.984;2023-09-30T03:58:32;12.00;99.90
57434;DHT22;43277;52.672;6.984;2023-09-30T04:00:59;12.00;99.90
57434;DHT22;43277;52.672;6.984;2023-09-30T04:03:26;12.00;99.90
57434;DHT22;43277;52.672;6.984;2023-09-30T04:05:53;12.00;99.90
57434;DHT22;43277;52.672;6.984;2023-09-30T04:08:19;11.90;99.90
57434;DHT22;43277;52.672;6.984;2023-09-30T04:10:44;12.00;99.90
57434;DHT22;43277;52.672;6.984;2023-09-30T04:13:10;12.00;99.90
57434;DHT22;43277;52.672;6.984;2023-09-30T04:15:37;12.00;99.90
57434;DHT22;43277;52.672;6.984;2023-09-30T04:18:04;12.00;99.90
57434;DHT22;43277;52.672;6.984;2023-09-30T04:20:31;11.90;99.90
57434;DHT22;43277;52.672;6.984;2023-09-30T04:22:57;11.90;99.90
57434;DHT22;43277;52.672;6.984;2023-09-30T04:25:23;11.80;99.90
57434;DHT22;43277;52.672;6.984;2023-09-30T04:27:52;11.90;99.90
57434;DHT22;43277;52.672;6.984;2023-09-30T04:30:18;11.90;99.90
57434;DHT22;43277;52.672;6.984;2023-09-30T04:32:45;11.90;99.90
57434;DHT22;43277;52.672;6.984;2023-09-30T04:35:11;11.90;99.90
57434;DHT22;43277;52.672;6.984;2023-09-30T04:37:37;11.90;99.90
57434;DHT22;43277;52.672;6.984;2023-09-30T04:40:09;11.90;99.90
57434;DHT22;43277;52.672;6.984;2023-09-30T04:42:45;11.90;99.90
57434;DHT22;43277;52.672;6.984;2023-09-30T04:45:12;11.90;99.90
57434;DHT22;43277;52.672;6.984;2023-09-30T04:47:38;11.90;99.90
57434;DHT22;43277;52.672;6.984;2023-09-30T04:50:06;11.90;99.90
57434;DHT22;43277;52.672;6.984;2023-09-30T04:52:36;11.80;99.90
57434;DHT22;43277;52.672;6.984;2023-09-30T04:55:02;11.80;99.90
57434;DHT22;43277;52.672;6.984;2023-09-30T04:57:29;11.80;99.90
57434;DHT22;43277;52.672;6.984;2023-09-30T04:59:55;11.80;99.90
57434;DHT22;43277;52.672;6.984;2023-09-30T05:02:23;11.80;99.90
57434;DHT22;43277;52.672;6.984;2023-09-30T05:04:49;11.80;99.90
57434;DHT22;43277;52.672;6.984;2023-09-30T05:07:15;11.80;99.90
57434;DHT22;43277;52.672;6.984;2023-09-30T05:09:40;11.90;99.90
57434;DHT22;43277;52.672;6.984;2023-09-30T05:12:06;11.90;99.90
57434;DHT22;43277;52.672;6.984;2023-09-30T05:14:32;12.00;99.90
57434;DHT22;43277;52.672;6.984;2023-09-30T05:16:58;12.00;99.90
57434;DHT22;43277;52.672;6.984;2023-09-30T05:19:24;12.00;99.90
57434;DHT22;43277;52.672;6.984;2023-09-30T05:21:50;12.00;99.90
57434;DHT22;43277;52.672;6.984;2023-09-30T05:24:16;12.00;99.90
57434;DHT22;43277;52.672;6.984;2023-09-30T05:26:44;12.00;99.90
57434;DHT22;43277;52.672;6.984;2023-09-30T05:29:10;12.00;99.90
57434;DHT22;43277;52.672;6.984;2023-09-30T05:31:36;12.00;99.90
57434;DHT22;43277;52.672;6.984;2023-09-30T05:34:02;12.10;99.90
57434;DHT22;43277;52.672;6.984;2023-09-30T05:36:27;12.10;99.90
57434;DHT22;43277;52.672;6.984;2023-09-30T05:38:54;12.10;99.90
57434;DHT22;43277;52.672;6.984;2023-09-30T05:41:21;12.10;99.90
57434;DHT22;43277;52.672;6.984;2023-09-30T05:43:47;12.10;99.90
57434;DHT22;43277;52.672;6.984;2023-09-30T05:46:12;12.10;99.90
57434;DHT22;43277;52.672;6.984;2023-09-30T05:48:38;12.10;99.90
57434;DHT22;43277;52.672;6.984;2023-09-30T05:51:07;12.00;99.90
57434;DHT22;43277;52.672;6.984;2023-09-30T05:53:33;12.00;99.90
57434;DHT22;43277;52.672;6.984;2023-09-30T05:56:01;11.90;99.90
57434;DHT22;43277;52.672;6.984;2023-09-30T05:58:27;12.00;99.90
57434;DHT22;43277;52.672;6.984;2023-09-30T06:00:53;12.00;99.90
57434;DHT22;43277;52.672;6.984;2023-09-30T06:03:19;11.90;99.90
57434;DHT22;43277;52.672;6.984;2023-09-30T06:05:46;11.90;99.90
57434;DHT22;43277;52.672;6.984;2023-09-30T06:08:14;11.80;99.90
57434;DHT22;43277;52.672;6.984;2023-09-30T06:10:40;11.80;99.90
57434;DHT22;43277;52.672;6.984;2023-09-30T06:13:08;11.80;99.90
57434;DHT22;43277;52.672;6.984;2023-09-30T06:15:40;11.80;99.90
57434;DHT22;43277;52.672;6.984;2023-09-30T06:18:06;11.80;99.90
57434;DHT22;43277;52.672;6.984;2023-09-30T06:20:32;11.80;99.90
57434;DHT22;43277;52.672;6.984;2023-09-30T06:22:59;11.80;99.90
57434;DHT22;43277;52.672;6.984;2023-09-30T06:25:26;11.80;99.90
57434;DHT22;43277;52.672;6.984;2023-09-30T06:27:53;11.80;99.90
57434;DHT22;43277;52.672;6.984;2023-09-30T06:30:22;11.90;99.90
57434;DHT22;43277;52.672;6.984;2023-09-30T06:32:55;11.90;99.90
57434;DHT22;43277;52.672;6.984;2023-09-30T06:35:21;11.90;99.90
57434;DHT22;43277;52.672;6.984;2023-09-30T06:37:48;12.00;99.90
57434;DHT22;43277;52.672;6.984;2023-09-30T06:40:14;12.00;99.90
57434;DHT22;43277;52.672;6.984;2023-09-30T06:42:40;12.00;99.90
57434;DHT22;43277;52.672;6.984;2023-09-30T06:45:07;12.10;99.90
57434;DHT22;43277;52.672;6.984;2023-09-30T06:47:36;12.20;99.90
57434;DHT22;43277;52.672;6.984;2023-09-30T06:50:03;12.30;99.90
57434;DHT22;43277;52.672;6.984;2023-09-30T06:52:40;12.40;99.90
57434;DHT22;43277;52.672;6.984;2023-09-30T06:55:07;12.40;99.90
57434;DHT22;43277;52.672;6.984;2023-09-30T06:57:34;12.60;99.90
57434;DHT22;43277;52.672;6.984;2023-09-30T07:00:00;12.60;99.90
57434;DHT22;43277;52.672;6.984;2023-09-30T07:02:26;12.60;99.90
57434;DHT22;43277;52.672;6.984;2023-09-30T07:04:52;12.80;99.90
57434;DHT22;43277;52.672;6.984;2023-09-30T07:07:18;12.90;99.90
57434;DHT22;43277;52.672;6.984;2023-09-30T07:09:44;13.10;99.90
57434;DHT22;43277;52.672;6.984;2023-09-30T07:12:10;12.90;99.90
57434;DHT22;43277;52.672;6.984;2023-09-30T07:14:35;12.90;99.90
57434;DHT22;43277;52.672;6.984;2023-09-30T07:17:01;13.00;99.90
57434;DHT22;43277;52.672;6.984;2023-09-30T07:19:30;13.00;99.90
57434;DHT22;43277;52.672;6.984;2023-09-30T07:21:56;13.20;99.90
57434;DHT22;43277;52.672;6.984;2023-09-30T07:24:22;13.30;99.90
57434;DHT22;43277;52.672;6.984;2023-09-30T07:26:47;13.20;99.90
57434;DHT22;43277;52.672;6.984;2023-09-30T07:29:13;13.30;99.90
57434;DHT22;43277;52.672;6.984;2023-09-30T07:31:38;13.40;99.90
57434;DHT22;43277;52.672;6.984;2023-09-30T07:34:04;13.50;99.90
57434;DHT22;43277;52.672;6.984;2023-09-30T07:36:30;13.50;99.90
57434;DHT22;43277;52.672;6.984;2023-09-30T07:38:55;13.60;99.90
57434;DHT22;43277;52.672;6.984;2023-09-30T07:41:21;13.60;99.90
57434;DHT22;43277;52.672;6.984;2023-09-30T07:43:47;13.70;99.90
57434;DHT22;43277;52.672;6.984;2023-09-30T07:46:12;13.80;99.90
57434;DHT22;43277;52.672;6.984;2023-09-30T07:48:40;13.90;99.90
57434;DHT22;43277;52.672;6.984;2023-09-30T07:51:06;13.90;99.90
57434;DHT22;43277;52.672;6.984;2023-09-30T07:53:35;14.00;99.90
57434;DHT22;43277;52.672;6.984;2023-09-30T07:56:01;14.20;99.90
57434;DHT22;43277;52.672;6.984;2023-09-30T07:58:26;14.20;99.90
57434;DHT22;43277;52.672;6.984;2023-09-30T08:00:52;14.20;99.90
57434;DHT22;43277;52.672;6.984;2023-09-30T08:03:18;14.30;99.90
57434;DHT22;43277;52.672;6.984;2023-09-30T08:05:44;14.60;99.90
57434;DHT22;43277;52.672;6.984;2023-09-30T08:08:11;14.70;99.90
57434;DHT22;43277;52.672;6.984;2023-09-30T08:10:37;14.60;99.90
57434;DHT22;43277;52.672;6.984;2023-09-30T08:13:04;14.80;99.90
57434;DHT22;43277;52.672;6.984;2023-09-30T08:15:29;14.90;99.90
57434;DHT22;43277;52.672;6.984;2023-09-30T08:17:56;14.90;99.90
57434;DHT22;43277;52.672;6.984;2023-09-30T08:20:21;15.00;99.90
57434;DHT22;43277;52.672;6.984;2023-09-30T08:22:47;15.10;99.90
57434;DHT22;43277;52.672;6.984;2023-09-30T08:25:13;15.00;99.90
57434;DHT22;43277;52.672;6.984;2023-09-30T08:27:39;15.10;99.90
57434;DHT22;43277;52.672;6.984;2023-09-30T08:30:06;15.10;99.90
57434;DHT22;43277;52.672;6.984;2023-09-30T08:32:35;15.20;99.90
57434;DHT22;43277;52.672;6.984;2023-09-30T08:35:02;15.30;99.90
57434;DHT22;43277;52.672;6.984;2023-09-30T08:37:30;15.40;99.90
57434;DHT22;43277;52.672;6.984;2023-09-30T08:39:57;15.50;99.90
57434;DHT22;43277;52.672;6.984;2023-09-30T08:42:22;15.70;99.90
57434;DHT22;43277;52.672;6.984;2023-09-30T08:44:52;15.60;99.90
57434;DHT22;43277;52.672;6.984;2023-09-30T08:47:20;15.90;99.90
57434;DHT22;43277;52.672;6.984;2023-09-30T08:49:46;16.00;99.90
57434;DHT22;43277;52.672;6.984;2023-09-30T08:52:14;15.90;99.90
57434;DHT22;43277;52.672;6.984;2023-09-30T08:54:40;15.90;99.90
57434;DHT22;43277;52.672;6.984;2023-09-30T08:57:08;15.90;99.90
57434;DHT22;43277;52.672;6.984;2023-09-30T08:59:35;16.00;99.90
57434;DHT22;43277;52.672;6.984;2023-09-30T09:02:01;16.00;99.90
57434;DHT22;43277;52.672;6.984;2023-09-30T09:04:27;16.10;99.90
57434;DHT22;43277;52.672;6.984;2023-09-30T09:06:54;16.20;99.90
57434;DHT22;43277;52.672;6.984;2023-09-30T09:09:22;16.20;99.90
57434;DHT22;43277;52.672;6.984;2023-09-30T09:11:49;16.10;99.90
57434;DHT22;43277;52.672;6.984;2023-09-30T09:14:16;16.10;99.90
57434;DHT22;43277;52.672;6.984;2023-09-30T09:16:52;16.00;99.90
57434;DHT22;43277;52.672;6.984;2023-09-30T09:19:18;16.20;99.90
57434;DHT22;43277;52.672;6.984;2023-09-30T09:24:32;16.40;99.90
57434;DHT22;43277;52.672;6.984;2023-09-30T09:27:08;16.50;99.90
57434;DHT22;43277;52.672;6.984;2023-09-30T09:29:39;16.50;99.90
57434;DHT22;43277;52.672;6.984;2023-09-30T09:32:15;16.50;99.90
57434;DHT22;43277;52.672;6.984;2023-09-30T09:34:43;16.50;99.90
57434;DHT22;43277;52.672;6.984;2023-09-30T09:37:15;16.60;99.90
57434;DHT22;43277;52.672;6.984;2023-09-30T09:39:59;16.80;99.90
57434;DHT22;43277;52.672;6.984;2023-09-30T09:42:30;17.00;99.90
57434;DHT22;43277;52.672;6.984;2023-09-30T09:44:58;17.40;99.90
57434;DHT22;43277;52.672;6.984;2023-09-30T09:47:24;17.50;99.90
57434;DHT22;43277;52.672;6.984;2023-09-30T09:49:51;17.60;99.90
57434;DHT22;43277;52.672;6.984;2023-09-30T09:52:18;17.80;99.90
57434;DHT22;43277;52.672;6.984;2023-09-30T09:54:45;17.90;99.90
57434;DHT22;43277;52.672;6.984;2023-09-30T09:57:14;18.10;99.90
57434;DHT22;43277;52.672;6.984;2023-09-30T09:59:43;18.30;99.90
57434;DHT22;43277;52.672;6.984;2023-09-30T10:02:11;18.40;99.90
57434;DHT22;43277;52.672;6.984;2023-09-30T10:04:44;18.50;99.90
57434;DHT22;43277;52.672;6.984;2023-09-30T10:07:37;18.70;99.90
57434;DHT22;43277;52.672;6.984;2023-09-30T10:10:10;18.90;99.90
57434;DHT22;43277;52.672;6.984;2023-09-30T10:12:38;18.90;99.90
57434;DHT22;43277;52.672;6.984;2023-09-30T10:18:06;19.10;99.90
57434;DHT22;43277;52.672;6.984;2023-09-30T10:20:36;19.10;99.90
57434;DHT22;43277;52.672;6.984;2023-09-30T10:23:29;19.20;99.90
57434;DHT22;43277;52.672;6.984;2023-09-30T10:31:22;19.50;99.90
57434;DHT22;43277;52.672;6.984;2023-09-30T10:36:29;19.70;99.90
57434;DHT22;43277;52.672;6.984;2023-09-30T10:38:55;19.60;99.90
57434;DHT22;43277;52.672;6.984;2023-09-30T10:51:53;19.80;99.90
57434;DHT22;43277;52.672;6.984;2023-09-30T10:54:24;19.90;99.90
57434;DHT22;43277;52.672;6.984;2023-09-30T10:56:49;20.00;99.90
57434;DHT22;43277;52.672;6.984;2023-09-30T10:59:22;20.10;99.90
57434;DHT22;43277;52.672;6.984;2023-09-30T11:01:49;20.20;99.90
57434;DHT22;43277;52.672;6.984;2023-09-30T11:04:16;20.20;99.90
57434;DHT22;43277;52.672;6.984;2023-09-30T11:06:42;20.20;99.90
57434;DHT22;43277;52.672;6.984;2023-09-30T11:09:08;20.20;99.90
57434;DHT22;43277;52.672;6.984;2023-09-30T11:11:41;20.20;99.90
57434;DHT22;43277;52.672;6.984;2023-09-30T11:16:50;20.30;99.90
57434;DHT22;43277;52.672;6.984;2023-09-30T11:19:16;20.30;99.90
57434;DHT22;43277;52.672;6.984;2023-09-30T11:21:43;20.40;99.90
57434;DHT22;43277;52.672;6.984;2023-09-30T11:24:13;20.50;99.90
57434;DHT22;43277;52.672;6.984;2023-09-30T11:26:38;20.60;99.90
57434;DHT22;43277;52.672;6.984;2023-09-30T11:29:11;20.60;99.90
57434;DHT22;43277;52.672;6.984;2023-09-30T11:31:41;20.60;99.90
57434;DHT22;43277;52.672;6.984;2023-09-30T11:34:08;20.50;99.90
57434;DHT22;43277;52.672;6.984;2023-09-30T11:36:38;20.60;99.90
57434;DHT22;43277;52.672;6.984;2023-09-30T11:39:04;20.50;99.90
57434;DHT22;43277;52.672;6.984;2023-09-30T11:44:11;20.40;99.90
57434;DHT22;43277;52.672;6.984;2023-09-30T11:46:57;20.60;99.90
57434;DHT22;43277;52.672;6.984;2023-09-30T11:51:59;20.80;99.90
57434;DHT22;43277;52.672;6.984;2023-09-30T11:54:35;20.80;99.90
57434;DHT22;43277;52.672;6.984;2023-09-30T11:57:07;20.90;99.90
57434;DHT22;43277;52.672;6.984;2023-09-30T11:59:39;21.10;99.40
57434;DHT22;43277;52.672;6.984;2023-09-30T12:02:10;21.30;99.40
57434;DHT22;43277;52.672;6.984;2023-09-30T12:04:36;21.40;98.70
57434;DHT22;43277;52.672;6.984;2023-09-30T12:07:02;21.40;99.00
57434;DHT22;43277;52.672;6.984;2023-09-30T12:09:28;21.60;98.40
57434;DHT22;43277;52.672;6.984;2023-09-30T12:11:56;21.60;98.00
57434;DHT22;43277;52.672;6.984;2023-09-30T12:14:23;21.50;98.10
57434;DHT22;43277;52.672;6.984;2023-09-30T12:16:49;21.40;99.00
57434;DHT22;43277;52.672;6.984;2023-09-30T12:19:19;21.40;98.80
57434;DHT22;43277;52.672;6.984;2023-09-30T12:21:45;21.30;99.20
57434;DHT22;43277;52.672;6.984;2023-09-30T12:24:14;21.20;97.60
57434;DHT22;43277;52.672;6.984;2023-09-30T12:26:48;21.10;97.10
57434;DHT22;43277;52.672;6.984;2023-09-30T12:29:15;21.20;96.10
57434;DHT22;43277;52.672;6.984;2023-09-30T12:31:46;21.20;96.20
57434;DHT22;43277;52.672;6.984;2023-09-30T12:34:12;21.20;96.40
57434;DHT22;43277;52.672;6.984;2023-09-30T12:36:39;21.30;96.90
57434;DHT22;43277;52.672;6.984;2023-09-30T12:39:04;21.30;96.60
57434;DHT22;43277;52.672;6.984;2023-09-30T12:41:37;21.40;96.20
57434;DHT22;43277;52.672;6.984;2023-09-30T12:44:02;21.40;96.40
57434;DHT22;43277;52.672;6.984;2023-09-30T12:46:28;21.30;96.00
57434;DHT22;43277;52.672;6.984;2023-09-30T12:48:54;21.30;97.00
57434;DHT22;43277;52.672;6.984;2023-09-30T12:51:20;21.40;96.80
57434;DHT22;43277;52.672;6.984;2023-09-30T12:53:46;21.40;96.40
57434;DHT22;43277;52.672;6.984;2023-09-30T12:56:12;21.30;96.30
57434;DHT22;43277;52.672;6.984;2023-09-30T12:58:37;21.30;95.70
57434;DHT22;43277;52.672;6.984;2023-09-30T13:01:04;21.20;96.10
57434;DHT22;43277;52.672;6.984;2023-09-30T13:03:32;21.20;95.70
57434;DHT22;43277;52.672;6.984;2023-09-30T13:05:57;21.20;95.80
57434;DHT22;43277;52.672;6.984;2023-09-30T13:08:23;21.20;95.90
57434;DHT22;43277;52.672;6.984;2023-09-30T13:10:49;21.20;95.10
57434;DHT22;43277;52.672;6.984;2023-09-30T13:13:16;21.20;95.20
57434;DHT22;43277;52.672;6.984;2023-09-30T13:15:41;21.30;96.10
57434;DHT22;43277;52.672;6.984;2023-09-30T13:18:07;21.70;95.80
57434;DHT22;43277;52.672;6.984;2023-09-30T13:20:33;22.20;94.70
57434;DHT22;43277;52.672;6.984;2023-09-30T13:22:58;22.80;94.90
57434;DHT22;43277;52.672;6.984;2023-09-30T13:25:24;23.30;92.90
57434;DHT22;43277;52.672;6.984;2023-09-30T13:27:50;23.50;93.00
57434;DHT22;43277;52.672;6.984;2023-09-30T13:30:15;23.90;93.70
57434;DHT22;43277;52.672;6.984;2023-09-30T13:32:43;23.90;92.70
57434;DHT22;43277;52.672;6.984;2023-09-30T13:35:09;23.50;92.50
57434;DHT22;43277;52.672;6.984;2023-09-30T13:37:35;23.30;92.00
57434;DHT22;43277;52.672;6.984;2023-09-30T13:40:03;23.20;92.60
57434;DHT22;43277;52.672;6.984;2023-09-30T13:42:37;23.20;93.10
57434;DHT22;43277;52.672;6.984;2023-09-30T13:45:03;23.00;93.30
57434;DHT22;43277;52.672;6.984;2023-09-30T13:47:29;22.70;93.40
57434;DHT22;43277;52.672;6.984;2023-09-30T13:49:54;22.40;94.10
57434;DHT22;43277;52.672;6.984;2023-09-30T13:52:20;22.10;94.00
57434;DHT22;43277;52.672;6.984;2023-09-30T13:54:46;22.00;95.00
57434;DHT22;43277;52.672;6.984;2023-09-30T13:57:12;22.30;94.40
57434;DHT22;43277;52.672;6.984;2023-09-30T13:59:39;22.60;94.20
57434;DHT22;43277;52.672;6.984;2023-09-30T14:02:05;23.20;93.30
57434;DHT22;43277;52.672;6.984;2023-09-30T14:04:30;23.60;92.60
57434;DHT22;43277;52.672;6.984;2023-09-30T14:07:02;24.00;92.00
57434;DHT22;43277;52.672;6.984;2023-09-30T14:09:29;24.50;91.00
57434;DHT22;43277;52.672;6.984;2023-09-30T14:11:55;24.50;90.20
57434;DHT22;43277;52.672;6.984;2023-09-30T14:14:21;24.10;90.30
57434;DHT22;43277;52.672;6.984;2023-09-30T14:16:46;23.70;90.40
57434;DHT22;43277;52.672;6.984;2023-09-30T14:19:13;23.80;90.70
57434;DHT22;43277;52.672;6.984;2023-09-30T14:21:40;24.30;89.60
57434;DHT22;43277;52.672;6.984;2023-09-30T14:24:05;25.00;89.40
57434;DHT22;43277;52.672;6.984;2023-09-30T14:26:32;25.80;90.10
57434;DHT22;43277;52.672;6.984;2023-09-30T14:28:57;26.30;81.80
57434;DHT22;43277;52.672;6.984;2023-09-30T14:31:23;26.50;81.70
57434;DHT22;43277;52.672;6.984;2023-09-30T14:33:48;26.40;80.60
57434;DHT22;43277;52.672;6.984;2023-09-30T14:36:16;26.40;78.40
57434;DHT22;43277;52.672;6.984;2023-09-30T14:38:43;26.20;78.80
57434;DHT22;43277;52.672;6.984;2023-09-30T14:41:10;26.00;79.60
57434;DHT22;43277;52.672;6.984;2023-09-30T14:43:38;25.90;78.60
57434;DHT22;43277;52.672;6.984;2023-09-30T14:46:03;25.70;78.10
57434;DHT22;43277;52.672;6.984;2023-09-30T14:48:29;25.60;78.50
57434;DHT22;43277;52.672;6.984;2023-09-30T14:50:55;25.40;78.50
57434;DHT22;43277;52.672;6.984;2023-09-30T14:53:22;25.10;77.70
57434;DHT22;43277;52.672;6.984;2023-09-30T14:55:48;24.80;77.90
57434;DHT22;43277;52.672;6.984;2023-09-30T14:58:13;24.30;79.80
57434;DHT22;43277;52.672;6.984;2023-09-30T15:00:39;23.60;81.50
57434;DHT22;43277;52.672;6.984;2023-09-30T15:03:05;23.00;84.80
57434;DHT22;43277;52.672;6.984;2023-09-30T15:05:34;22.40;87.20
57434;DHT22;43277;52.672;6.984;2023-09-30T15:08:01;21.90;89.50
57434;DHT22;43277;52.672;6.984;2023-09-30T15:10:27;21.50;90.60
57434;DHT22;43277;52.672;6.984;2023-09-30T15:12:54;21.20;91.00
57434;DHT22;43277;52.672;6.984;2023-09-30T15:15:20;21.00;91.70
57434;DHT22;43277;52.672;6.984;2023-09-30T15:17:45;20.70;92.40
57434;DHT22;43277;52.672;6.984;2023-09-30T15:20:11;20.40;93.10
57434;DHT22;43277;52.672;6.984;2023-09-30T15:22:37;20.30;93.60
57434;DHT22;43277;52.672;6.984;2023-09-30T15:25:04;20.20;93.90
57434;DHT22;43277;52.672;6.984;2023-09-30T15:27:30;20.30;94.60
57434;DHT22;43277;52.672;6.984;2023-09-30T15:29:58;20.30;94.60
57434;DHT22;43277;52.672;6.984;2023-09-30T15:32:24;20.30;94.50
57434;DHT22;43277;52.672;6.984;2023-09-30T15:34:49;20.30;94.90
57434;DHT22;43277;52.672;6.984;2023-09-30T15:37:15;20.20;95.60
57434;DHT22;43277;52.672;6.984;2023-09-30T15:39:41;20.20;96.00
57434;DHT22;43277;52.672;6.984;2023-09-30T15:42:08;20.00;96.10
57434;DHT22;43277;52.672;6.984;2023-09-30T15:44:41;19.90;96.90
57434;DHT22;43277;52.672;6.984;2023-09-30T15:47:07;19.80;97.60
57434;DHT22;43277;52.672;6.984;2023-09-30T15:49:33;19.80;97.60
57434;DHT22;43277;52.672;6.984;2023-09-30T15:51:59;19.80;97.30
57434;DHT22;43277;52.672;6.984;2023-09-30T15:54:25;19.70;97.70
57434;DHT22;43277;52.672;6.984;2023-09-30T15:56:51;19.60;98.40
57434;DHT22;43277;52.672;6.984;2023-09-30T15:59:19;19.50;99.00
57434;DHT22;43277;52.672;6.984;2023-09-30T16:01:45;19.40;99.80